createdAt,value
2023-08-24T00:00:59.134Z,10.27
2023-08-24T00:03:28.883Z,10.48
2023-08-24T00:06:25.707Z,10.98
2023-08-24T00:08:55.229Z,10.70
2023-08-24T00:11:33.160Z,11.45
2023-08-24T00:14:12.269Z,10.85
2023-08-24T00:16:42.723Z,11.35
2023-08-24T00:19:14.573Z,11.68
2023-08-24T00:21:43.990Z,11.23
2023-08-24T00:24:14.988Z,12.15
2023-08-24T00:26:51.251Z,11.73
2023-08-24T00:29:19.515Z,12.30
2023-08-24T00:31:48.345Z,12.48
2023-08-24T00:34:19.474Z,11.68
2023-08-24T00:36:49.885Z,11.05
2023-08-24T00:39:18.917Z,11.88
2023-08-24T00:41:51.152Z,11.77
2023-08-24T00:44:21.011Z,11.35
2023-08-24T00:46:51.967Z,12.07
2023-08-24T00:49:21.622Z,11.10
2023-08-24T00:51:52.410Z,11.43
2023-08-24T00:54:21.059Z,11.45
2023-08-24T00:56:50.236Z,12.30
2023-08-24T00:59:28.521Z,12.38
2023-08-24T01:02:06.035Z,11.30
2023-08-24T01:04:35.876Z,11.95
2023-08-24T01:07:05.906Z,12.10
2023-08-24T01:09:37.040Z,11.57
2023-08-24T01:12:53.261Z,11.13
2023-08-24T01:15:38.780Z,11.32
2023-08-24T01:18:26.583Z,11.10
2023-08-24T01:21:04.383Z,11.48
2023-08-24T01:24:00.620Z,12.23
2023-08-24T01:26:29.470Z,11.30
2023-08-24T01:28:59.638Z,11.10
2023-08-24T01:31:36.262Z,10.68
2023-08-24T01:34:07.361Z,11.20
2023-08-24T01:36:40.436Z,11.35
2023-08-24T01:39:36.029Z,10.45
2023-08-24T01:42:25.072Z,10.77
2023-08-24T01:45:00.795Z,11.68
2023-08-24T01:47:37.292Z,11.13
2023-08-24T01:50:08.747Z,12.35
2023-08-24T01:52:47.293Z,11.40
2023-08-24T01:55:24.497Z,11.25
2023-08-24T01:57:53.602Z,10.80
2023-08-24T02:00:22.824Z,11.57
2023-08-24T02:02:51.318Z,11.13
2023-08-24T02:05:22.396Z,11.02
2023-08-24T02:07:49.748Z,11.93
2023-08-24T02:10:20.966Z,10.93
2023-08-24T02:12:49.575Z,10.80
2023-08-24T02:15:19.618Z,11.25
2023-08-24T02:17:46.838Z,11.18
2023-08-24T02:20:24.191Z,10.63
2023-08-24T02:22:53.421Z,11.43
2023-08-24T02:25:22.324Z,10.35
2023-08-24T02:27:51.519Z,11.38
2023-08-24T02:30:31.701Z,12.10
2023-08-24T02:33:00.102Z,11.35
2023-08-24T02:35:29.526Z,11.65
2023-08-24T02:38:00.687Z,11.88
2023-08-24T02:40:29.485Z,12.25
2023-08-24T02:42:59.558Z,12.48
2023-08-24T02:45:26.666Z,12.05
2023-08-24T02:47:56.844Z,11.57
2023-08-24T02:50:24.672Z,12.07
2023-08-24T02:52:54.866Z,11.90
2023-08-24T02:55:28.893Z,10.95
2023-08-24T02:57:56.411Z,11.45
2023-08-24T03:00:25.333Z,12.00
2023-08-24T03:03:00.347Z,11.40
2023-08-24T03:05:29.477Z,11.23
2023-08-24T03:07:56.852Z,11.70
2023-08-24T03:10:27.373Z,12.10
2023-08-24T03:12:57.971Z,11.52
2023-08-24T03:15:30.146Z,11.25
2023-08-24T03:17:59.171Z,12.55
2023-08-24T03:20:27.748Z,11.68
2023-08-24T03:22:57.956Z,12.43
2023-08-24T03:25:28.769Z,12.63
2023-08-24T03:28:01.406Z,12.10
2023-08-24T03:30:31.630Z,11.48
2023-08-24T03:33:03.363Z,11.00
2023-08-24T03:35:41.078Z,11.27
2023-08-24T03:38:11.164Z,12.73
2023-08-24T03:40:47.693Z,11.52
2023-08-24T03:43:18.080Z,11.88
2023-08-24T03:45:55.752Z,12.35
2023-08-24T03:48:32.856Z,12.07
2023-08-24T03:51:01.525Z,11.82
2023-08-24T03:53:32.797Z,12.65
2023-08-24T03:56:00.068Z,12.30
2023-08-24T03:58:28.679Z,11.57
2023-08-24T04:00:58.796Z,11.85
2023-08-24T04:03:28.685Z,13.07
2023-08-24T04:05:58.840Z,11.85
2023-08-24T04:08:36.016Z,12.50
2023-08-24T04:11:04.444Z,12.55
2023-08-24T04:13:34.283Z,12.30
2023-08-24T04:16:14.751Z,12.77
2023-08-24T04:18:43.132Z,12.95
2023-08-24T04:21:11.596Z,13.00
2023-08-24T04:24:10.497Z,12.82
2023-08-24T04:26:40.563Z,12.02
2023-08-24T04:29:09.375Z,11.93
2023-08-24T04:31:46.764Z,12.95
2023-08-24T04:34:25.555Z,12.43
2023-08-24T04:36:54.823Z,12.13
2023-08-24T04:39:25.326Z,12.15
2023-08-24T04:42:01.102Z,11.63
2023-08-24T04:44:29.347Z,10.88
2023-08-24T04:46:59.202Z,11.05
2023-08-24T04:49:34.410Z,10.57
2023-08-24T04:52:03.713Z,10.35
2023-08-24T04:54:36.131Z,11.85
2023-08-24T04:57:13.667Z,10.50
2023-08-24T04:59:42.950Z,10.70
2023-08-24T05:02:12.875Z,10.23
2023-08-24T05:04:43.801Z,11.23
2023-08-24T05:07:11.140Z,10.57
2023-08-24T05:09:47.640Z,10.70
2023-08-24T05:12:23.744Z,10.27
2023-08-24T05:14:52.050Z,10.75
2023-08-24T05:17:19.964Z,10.70
2023-08-24T05:19:55.235Z,10.52
2023-08-24T05:22:27.592Z,10.50
2023-08-24T05:24:55.045Z,9.43
2023-08-24T05:27:24.025Z,9.80
2023-08-24T05:30:00.162Z,10.80
2023-08-24T05:32:36.299Z,10.57
2023-08-24T05:35:04.950Z,9.98
2023-08-24T05:37:36.875Z,10.23
2023-08-24T05:40:16.154Z,10.07
2023-08-24T05:42:45.836Z,10.18
2023-08-24T05:45:14.297Z,9.02
2023-08-24T05:47:45.272Z,9.98
2023-08-24T05:50:14.073Z,9.23
2023-08-24T05:52:42.695Z,8.90
2023-08-24T05:55:12.580Z,9.10
2023-08-24T05:57:44.846Z,8.55
2023-08-24T06:00:15.348Z,9.02
2023-08-24T06:02:52.623Z,9.65
2023-08-24T06:05:22.539Z,8.98
2023-08-24T06:07:53.064Z,9.00
2023-08-24T06:10:29.738Z,9.57
2023-08-24T06:12:58.353Z,9.52
2023-08-24T06:15:32.973Z,9.23
2023-08-24T06:18:03.099Z,9.63
2023-08-24T06:20:36.687Z,9.05
2023-08-24T06:23:05.304Z,8.68
2023-08-24T06:25:33.824Z,9.02
2023-08-24T06:28:05.212Z,9.38
2023-08-24T06:30:38.733Z,9.20
2023-08-24T06:33:09.416Z,9.20
2023-08-24T06:35:38.223Z,9.27
2023-08-24T06:38:27.364Z,9.13
2023-08-24T06:40:57.156Z,9.65
2023-08-24T06:43:31.032Z,9.90
2023-08-24T06:45:58.896Z,9.30
2023-08-24T06:48:30.384Z,9.82
2023-08-24T06:50:57.553Z,9.95
2023-08-24T06:53:27.864Z,9.98
2023-08-24T06:56:01.135Z,9.20
2023-08-24T06:58:29.949Z,9.32
2023-08-24T07:00:58.759Z,8.73
2023-08-24T07:03:30.823Z,9.40
2023-08-24T07:06:01.076Z,8.48
2023-08-24T07:08:29.344Z,8.23
2023-08-24T07:10:59.666Z,8.77
2023-08-24T07:13:30.152Z,8.82
2023-08-24T07:16:00.903Z,9.20
2023-08-24T07:18:38.240Z,8.40
2023-08-24T07:21:14.226Z,8.13
2023-08-24T07:23:42.355Z,8.48
2023-08-24T07:26:12.473Z,8.48
2023-08-24T07:28:42.441Z,8.23
2023-08-24T07:31:13.289Z,8.27
2023-08-24T07:33:45.175Z,8.90
2023-08-24T07:36:15.076Z,8.43
2023-08-24T07:38:45.534Z,9.05
2023-08-24T07:41:20.477Z,8.73
2023-08-24T07:43:49.450Z,8.32
2023-08-24T07:46:19.349Z,8.77
2023-08-24T07:48:46.708Z,8.02
2023-08-24T07:51:17.233Z,8.27
2023-08-24T07:53:47.713Z,8.15
2023-08-24T07:56:17.317Z,7.93
2023-08-24T07:58:45.759Z,7.57
2023-08-24T08:01:14.775Z,7.18
2023-08-24T08:03:43.548Z,7.82
2023-08-24T08:06:15.023Z,8.20
2023-08-24T08:08:49.045Z,7.85
2023-08-24T08:11:20.535Z,7.82
2023-08-24T08:13:52.014Z,7.70
2023-08-24T08:16:21.123Z,8.00
2023-08-24T08:18:49.651Z,8.30
2023-08-24T08:21:22.670Z,8.32
2023-08-24T08:24:02.302Z,8.38
2023-08-24T08:26:31.128Z,8.75
2023-08-24T08:28:59.954Z,8.90
2023-08-24T08:31:28.764Z,8.75
2023-08-24T08:33:58.578Z,8.27
2023-08-24T08:36:29.805Z,8.25
2023-08-24T08:39:00.587Z,9.18
2023-08-24T08:41:41.096Z,8.82
2023-08-24T08:44:08.359Z,9.20
2023-08-24T08:46:41.960Z,9.02
2023-08-24T08:49:13.614Z,9.60
2023-08-24T08:51:43.101Z,9.02
2023-08-24T08:54:20.128Z,8.63
2023-08-24T08:56:49.202Z,9.10
2023-08-24T08:59:18.893Z,9.43
2023-08-24T09:01:48.938Z,9.15
2023-08-24T09:04:23.529Z,9.10
2023-08-24T09:07:03.635Z,9.35
2023-08-24T09:09:41.681Z,8.70
2023-08-24T09:12:13.529Z,9.50
2023-08-24T09:14:45.436Z,8.80
2023-08-24T09:17:26.199Z,9.18
2023-08-24T09:20:09.069Z,8.45
2023-08-24T09:22:43.478Z,9.10
2023-08-24T09:25:13.459Z,8.63
2023-08-24T09:27:43.674Z,8.38
2023-08-24T09:30:22.815Z,9.05
2023-08-24T09:32:52.281Z,9.43
2023-08-24T09:35:26.048Z,8.73
2023-08-24T09:38:03.590Z,8.68
2023-08-24T09:40:40.648Z,8.68
2023-08-24T09:43:16.019Z,8.93
2023-08-24T09:46:05.814Z,9.35
2023-08-24T09:48:35.728Z,8.45
2023-08-24T09:51:08.069Z,8.02
2023-08-24T09:53:45.608Z,8.07
2023-08-24T09:56:21.145Z,8.70
2023-08-24T09:58:52.994Z,8.68
2023-08-24T10:01:22.522Z,8.13
2023-08-24T10:03:54.334Z,9.07
2023-08-24T10:06:25.704Z,8.85
2023-08-24T10:09:08.731Z,8.75
2023-08-24T10:11:54.001Z,8.65
2023-08-24T10:15:02.293Z,8.45
2023-08-24T10:17:34.531Z,9.85
2023-08-24T10:20:11.723Z,7.78
2023-08-24T10:22:46.877Z,8.43
2023-08-24T10:25:15.371Z,8.15
2023-08-24T10:27:49.487Z,8.32
2023-08-24T10:30:18.047Z,8.10
2023-08-24T10:32:53.897Z,8.88
2023-08-24T10:35:31.280Z,8.40
2023-08-24T10:38:02.153Z,9.80
2023-08-24T10:40:45.949Z,8.82
2023-08-24T10:43:14.967Z,8.77
2023-08-24T10:46:04.143Z,8.40
2023-08-24T10:49:01.197Z,9.23
2023-08-24T10:51:35.799Z,8.20
2023-08-24T10:54:05.709Z,8.77
2023-08-24T10:57:04.307Z,8.18
2023-08-24T10:59:50.885Z,8.15
2023-08-24T11:02:22.129Z,8.70
2023-08-24T11:05:11.771Z,8.88
2023-08-24T11:08:06.259Z,8.00
2023-08-24T11:10:48.452Z,7.80
2023-08-24T11:13:27.633Z,7.60
2023-08-24T11:16:03.063Z,8.25
2023-08-24T11:18:34.857Z,8.10
2023-08-24T11:21:07.060Z,8.85
2023-08-24T11:23:39.095Z,8.93
2023-08-24T11:26:06.344Z,7.75
2023-08-24T11:28:42.050Z,8.02
2023-08-24T11:31:14.761Z,8.27
2023-08-24T11:33:44.993Z,8.48
2023-08-24T11:36:21.987Z,7.78
2023-08-24T11:39:01.347Z,7.53
2023-08-24T11:41:29.919Z,7.70
2023-08-24T11:44:15.038Z,8.30
2023-08-24T11:47:01.384Z,8.52
2023-08-24T11:49:28.682Z,8.85
2023-08-24T11:51:59.694Z,8.30
2023-08-24T11:54:30.805Z,8.13
2023-08-24T11:57:05.769Z,8.38
2023-08-24T11:59:33.684Z,8.23
2023-08-24T12:02:04.667Z,7.95
2023-08-24T12:04:44.999Z,8.65
2023-08-24T12:07:19.945Z,8.30
2023-08-24T12:09:49.140Z,8.70
2023-08-24T12:12:28.483Z,8.43
2023-08-24T12:15:00.658Z,8.77
2023-08-24T12:17:31.042Z,8.68
2023-08-24T12:20:17.312Z,8.73
2023-08-24T12:23:07.546Z,8.80
2023-08-24T12:26:01.232Z,9.13
2023-08-24T12:28:31.181Z,9.05
2023-08-24T12:31:07.500Z,9.23
2023-08-24T12:33:37.784Z,9.80
2023-08-24T12:36:10.415Z,9.82
2023-08-24T12:38:41.284Z,10.00
2023-08-24T12:41:12.453Z,10.02
2023-08-24T12:43:51.151Z,9.85
2023-08-24T12:46:28.336Z,9.48
2023-08-24T12:48:58.158Z,10.13
2023-08-24T12:51:34.278Z,10.13
2023-08-24T12:54:04.457Z,9.80
2023-08-24T12:56:35.836Z,9.85
2023-08-24T12:59:03.013Z,10.18
2023-08-24T13:01:34.058Z,10.50
2023-08-24T13:04:02.808Z,10.35
2023-08-24T13:06:31.759Z,10.75
2023-08-24T13:09:08.715Z,10.93
2023-08-24T13:11:46.962Z,10.73
2023-08-24T13:14:14.325Z,11.35
2023-08-24T13:16:47.866Z,10.45
2023-08-24T13:19:17.566Z,10.30
2023-08-24T13:21:45.072Z,11.05
2023-08-24T13:24:13.634Z,11.68
2023-08-24T13:26:44.113Z,11.30
2023-08-24T13:29:17.836Z,12.05
2023-08-24T13:31:45.304Z,10.95
2023-08-24T13:34:12.928Z,11.35
2023-08-24T13:36:41.907Z,10.57
2023-08-24T13:39:13.090Z,10.68
2023-08-24T13:41:43.469Z,10.98
2023-08-24T13:44:17.438Z,11.55
2023-08-24T13:46:48.621Z,11.32
2023-08-24T13:49:38.475Z,10.80
2023-08-24T13:52:14.441Z,10.50
2023-08-24T13:54:59.575Z,11.82
2023-08-24T13:57:45.959Z,10.65
2023-08-24T14:00:22.483Z,10.32
2023-08-24T14:03:00.736Z,10.93
2023-08-24T14:05:38.077Z,11.10
2023-08-24T14:08:09.608Z,11.02
2023-08-24T14:10:40.124Z,11.57
2023-08-24T14:13:10.117Z,11.60
2023-08-24T14:15:48.215Z,11.48
2023-08-24T14:18:19.089Z,12.05
2023-08-24T14:20:55.934Z,12.48
2023-08-24T14:23:25.851Z,11.50
2023-08-24T14:25:57.382Z,11.00
2023-08-24T14:28:56.693Z,11.60
2023-08-24T14:31:30.917Z,12.63
2023-08-24T14:33:59.028Z,12.27
2023-08-24T14:36:26.272Z,12.80
2023-08-24T14:38:54.902Z,11.77
2023-08-24T14:41:24.668Z,12.35
2023-08-24T14:43:54.972Z,12.20
2023-08-24T14:46:23.693Z,12.02
2023-08-24T14:48:53.487Z,12.82
2023-08-24T14:51:22.627Z,12.75
2023-08-24T14:53:59.878Z,12.48
2023-08-24T14:56:37.068Z,12.20
2023-08-24T14:59:08.117Z,12.10
2023-08-24T15:01:38.676Z,12.27
2023-08-24T15:04:08.701Z,12.07
2023-08-24T15:06:40.169Z,12.07
2023-08-24T15:09:08.739Z,12.60
2023-08-24T15:11:46.054Z,13.20
2023-08-24T15:14:14.938Z,12.38
2023-08-24T15:16:43.616Z,12.85
2023-08-24T15:19:12.309Z,11.98
2023-08-24T15:21:43.876Z,11.98
2023-08-24T15:24:21.208Z,13.02
2023-08-24T15:27:01.801Z,12.95
2023-08-24T15:29:31.548Z,12.60
2023-08-24T15:32:02.217Z,12.82
2023-08-24T15:34:32.057Z,12.60
2023-08-24T15:37:04.175Z,11.93
2023-08-24T15:39:41.355Z,12.13
2023-08-24T15:42:10.779Z,12.20
2023-08-24T15:44:41.043Z,11.57
2023-08-24T15:47:09.879Z,12.52
2023-08-24T15:49:39.157Z,12.30
2023-08-24T15:52:16.288Z,12.10
2023-08-24T15:54:44.931Z,13.07
2023-08-24T15:57:14.565Z,11.70
2023-08-24T15:59:45.460Z,12.05
2023-08-24T16:02:14.054Z,12.80
2023-08-24T16:04:42.772Z,12.18
2023-08-24T16:07:11.467Z,12.63
2023-08-24T16:09:41.547Z,11.73
2023-08-24T16:12:11.996Z,12.18
2023-08-24T16:14:39.923Z,11.80
2023-08-24T16:17:07.260Z,12.38
2023-08-24T16:19:35.872Z,11.77
2023-08-24T16:22:10.190Z,12.68
2023-08-24T16:24:39.997Z,12.30
2023-08-24T16:27:10.871Z,11.63
2023-08-24T16:29:39.315Z,11.25
2023-08-24T16:32:10.094Z,11.85
2023-08-24T16:34:50.590Z,11.95
2023-08-24T16:37:30.897Z,12.18
2023-08-24T16:40:00.839Z,11.82
2023-08-24T16:42:36.125Z,12.10
2023-08-24T16:45:07.331Z,11.82
2023-08-24T16:47:36.586Z,12.00
2023-08-24T16:50:07.211Z,11.57
2023-08-24T16:52:46.990Z,12.32
2023-08-24T16:55:24.591Z,11.13
2023-08-24T16:57:54.454Z,12.25
2023-08-24T17:00:33.350Z,12.80
2023-08-24T17:03:04.612Z,12.02
2023-08-24T17:05:38.337Z,11.90
2023-08-24T17:08:18.608Z,12.02
2023-08-24T17:10:51.420Z,12.27
2023-08-24T17:13:21.826Z,12.10
2023-08-24T17:15:54.301Z,12.05
2023-08-24T17:18:24.170Z,11.95
2023-08-24T17:20:52.868Z,12.77
2023-08-24T17:23:21.935Z,12.63
2023-08-24T17:25:53.390Z,12.75
2023-08-24T17:28:30.130Z,12.27
2023-08-24T17:30:57.443Z,12.45
2023-08-24T17:33:24.829Z,12.73
2023-08-24T17:35:52.058Z,12.98
2023-08-24T17:38:21.904Z,11.57
2023-08-24T17:40:52.484Z,13.38
2023-08-24T17:43:21.104Z,12.52
2023-08-24T17:45:51.942Z,13.25
2023-08-24T17:48:29.113Z,12.70
2023-08-24T17:51:03.179Z,13.25
2023-08-24T17:53:39.670Z,13.15
2023-08-24T17:58:49.206Z,13.35
2023-08-24T18:01:19.113Z,13.15
2023-08-24T18:03:49.163Z,12.35
2023-08-24T18:06:19.110Z,13.40
2023-08-24T18:08:57.321Z,13.38
2023-08-24T18:11:26.233Z,13.07
2023-08-24T18:13:54.347Z,14.07
2023-08-24T18:16:24.411Z,13.32
2023-08-24T18:18:53.388Z,12.75
2023-08-24T18:21:22.014Z,13.98
2023-08-24T18:23:50.036Z,12.90
2023-08-24T18:26:18.519Z,12.68
2023-08-24T18:28:49.029Z,14.02
2023-08-24T18:31:19.507Z,13.30
2023-08-24T18:33:49.950Z,12.60
2023-08-24T18:36:18.247Z,13.23
2023-08-24T18:38:55.629Z,13.45
2023-08-24T18:41:22.975Z,13.32
2023-08-24T18:43:51.284Z,12.77
2023-08-24T18:46:19.794Z,13.70
2023-08-24T18:48:53.848Z,13.80
2023-08-24T18:51:24.225Z,13.55
2023-08-24T18:53:54.440Z,13.00
2023-08-24T18:56:31.617Z,13.40
2023-08-24T18:59:00.073Z,13.38
2023-08-24T19:01:28.765Z,13.55
2023-08-24T19:03:58.014Z,13.77
2023-08-24T19:06:41.641Z,13.52
2023-08-24T19:09:14.858Z,13.35
2023-08-24T19:11:42.204Z,12.60
2023-08-24T19:14:19.634Z,13.10
2023-08-24T19:16:49.536Z,13.52
2023-08-24T19:19:22.265Z,13.18
2023-08-24T19:21:51.282Z,13.65
2023-08-24T19:24:21.711Z,13.23
2023-08-24T19:26:52.425Z,12.68
2023-08-24T19:29:21.012Z,12.80
2023-08-24T19:31:52.894Z,12.48
2023-08-24T19:34:22.781Z,13.80
2023-08-24T19:36:53.984Z,12.95
2023-08-24T19:39:22.417Z,12.82
2023-08-24T19:42:00.106Z,12.60
2023-08-24T19:44:39.274Z,13.38
2023-08-24T19:47:07.083Z,13.13
2023-08-24T19:49:45.109Z,11.98
2023-08-24T19:52:15.822Z,12.65
2023-08-24T19:54:44.513Z,12.88
2023-08-24T19:57:18.683Z,12.60
2023-08-24T19:59:47.719Z,13.45
2023-08-24T20:02:18.541Z,13.07
2023-08-24T20:04:56.113Z,13.40
2023-08-24T20:07:25.030Z,12.88
2023-08-24T20:09:56.691Z,13.05
2023-08-24T20:12:26.198Z,13.95
2023-08-24T20:14:55.974Z,12.88
2023-08-24T20:17:31.200Z,13.70
2023-08-24T20:20:06.214Z,13.15
2023-08-24T20:22:38.014Z,13.20
2023-08-24T20:25:06.660Z,13.05
2023-08-24T20:27:35.242Z,13.18
2023-08-24T20:30:08.851Z,13.13
2023-08-24T20:32:46.514Z,12.85
2023-08-24T20:35:14.904Z,13.55
2023-08-24T20:37:47.464Z,13.52
2023-08-24T20:40:16.047Z,13.48
2023-08-24T20:42:44.340Z,13.30
2023-08-24T20:45:13.848Z,13.32
2023-08-24T20:47:42.555Z,12.75
2023-08-24T20:50:13.382Z,13.40
2023-08-24T20:52:40.609Z,12.98
2023-08-24T20:55:16.866Z,13.38
2023-08-24T20:57:45.419Z,13.18
2023-08-24T21:00:14.321Z,13.98
2023-08-24T21:02:43.531Z,13.25
2023-08-24T21:05:13.117Z,14.23
2023-08-24T21:07:41.754Z,13.13
2023-08-24T21:10:12.870Z,13.77
2023-08-24T21:12:49.592Z,12.95
2023-08-24T21:15:19.736Z,13.70
2023-08-24T21:17:53.012Z,13.48
2023-08-24T21:20:30.968Z,13.35
2023-08-24T21:22:58.956Z,13.02
2023-08-24T21:25:33.044Z,13.80
2023-08-24T21:28:11.905Z,13.07
2023-08-24T21:30:51.028Z,14.05
2023-08-24T21:33:21.030Z,13.90
2023-08-24T21:35:50.609Z,14.23
2023-08-24T21:38:19.206Z,13.27
2023-08-24T21:40:48.036Z,13.77
2023-08-24T21:43:25.618Z,13.93
2023-08-24T21:45:58.028Z,13.32
2023-08-24T21:48:25.447Z,13.13
2023-08-24T21:50:54.424Z,13.57
2023-08-24T21:53:23.179Z,13.45
2023-08-24T21:55:52.733Z,14.00
2023-08-24T21:58:22.406Z,14.40
2023-08-24T22:01:19.890Z,13.18
2023-08-24T22:03:58.560Z,13.60
2023-08-24T22:06:30.136Z,13.77
2023-08-24T22:09:00.878Z,13.55
2023-08-24T22:11:36.963Z,13.57
2023-08-24T22:14:14.159Z,14.45
2023-08-24T22:16:44.586Z,13.80
2023-08-24T22:19:26.607Z,13.52
2023-08-24T22:21:57.404Z,13.10
2023-08-24T22:24:25.124Z,14.05
2023-08-24T22:26:54.519Z,14.18
2023-08-24T22:29:26.404Z,13.70
2023-08-24T22:31:54.880Z,13.77
2023-08-24T22:34:27.596Z,13.90
2023-08-24T22:37:03.994Z,14.35
2023-08-24T22:39:40.374Z,15.25
2023-08-24T22:42:10.151Z,14.70
2023-08-24T22:44:40.501Z,14.23
2023-08-24T22:47:16.199Z,14.65
2023-08-24T22:49:47.198Z,14.98
2023-08-24T22:52:16.250Z,14.55
2023-08-24T22:54:44.548Z,14.68
2023-08-24T22:57:19.083Z,15.18
2023-08-24T22:59:49.414Z,15.73
2023-08-24T23:02:22.529Z,15.13
2023-08-24T23:04:50.531Z,15.18
2023-08-24T23:07:19.667Z,14.95
2023-08-24T23:09:53.295Z,15.48
2023-08-24T23:12:30.866Z,15.13
2023-08-24T23:14:59.380Z,14.93
2023-08-24T23:17:36.280Z,15.35
2023-08-24T23:20:08.459Z,15.77
2023-08-24T23:22:37.147Z,15.15
2023-08-24T23:25:06.822Z,15.38
2023-08-24T23:27:35.627Z,14.93
2023-08-24T23:30:09.826Z,15.00
2023-08-24T23:32:41.294Z,15.23
2023-08-24T23:35:15.836Z,15.55
2023-08-24T23:37:47.562Z,15.20
2023-08-24T23:40:21.276Z,14.63
2023-08-24T23:42:50.797Z,15.00
2023-08-24T23:45:19.324Z,14.52
2023-08-24T23:47:47.864Z,14.60
2023-08-24T23:50:18.134Z,14.82
2023-08-24T23:52:48.012Z,14.70
2023-08-24T23:55:17.266Z,15.50
2023-08-24T23:57:47.269Z,15.63
